Time;durP1;ratioP1;P1;durP2;ratioP2;P2;SDS_P1;SDS_P2;PMS_P1;PMS_P2;Temp;Humidity;BMP_temperature;BMP_pressure;BME280_temperature;BME280_humidity;BME280_pressure;Samples;Min_cycle;Max_cycle;Signal;HPM_P1;HPM_P2
2021/04/16 00:00:27;;;;;;;3.65;1.60;;;4.10;99.90;;;;;;5034521;28;20029;-64
2021/04/16 00:02:53;;;;;;;3.33;1.55;;;4.10;99.90;;;;;;5049201;28;20025;-64
2021/04/16 00:05:19;;;;;;;4.68;1.48;;;4.20;99.90;;;;;;5034387;28;20371;-65
2021/04/16 00:07:45;;;;;;;3.38;1.60;;;4.30;99.90;;;;;;5034084;28;20425;-64
2021/04/16 00:10:17;;;;;;;4.20;1.45;;;4.30;99.90;;;;;;5034253;28;20022;-65
2021/04/16 00:12:43;;;;;;;4.18;1.58;;;4.40;99.90;;;;;;5034099;28;20113;-64
2021/04/16 00:15:18;;;;;;;2.60;1.40;;;4.30;99.90;;;;;;5034192;28;20113;-64
2021/04/16 00:17:44;;;;;;;4.78;1.85;;;4.30;99.90;;;;;;5033922;28;20030;-64
2021/04/16 00:20:14;;;;;;;3.22;1.40;;;4.30;99.90;;;;;;5033986;28;20132;-65
2021/04/16 00:22:39;;;;;;;2.67;1.35;;;4.20;99.90;;;;;;5034003;28;20092;-64
2021/04/16 00:25:14;;;;;;;2.50;1.40;;;4.20;99.90;;;;;;5016245;28;20025;-64
2021/04/16 00:27:39;;;;;;;3.92;1.23;;;4.30;99.90;;;;;;5033982;28;20034;-64
2021/04/16 00:30:10;;;;;;;4.75;1.90;;;4.30;99.90;;;;;;5033834;28;20101;-64
2021/04/16 00:32:36;;;;;;;2.70;1.30;;;4.40;99.90;;;;;;5033861;28;20029;-64
2021/04/16 00:35:05;;;;;;;4.00;1.27;;;4.40;99.90;;;;;;5033736;28;20021;-64
2021/04/16 00:37:31;;;;;;;2.42;1.40;;;4.40;99.90;;;;;;5048573;28;20025;-64
2021/04/16 00:39:57;;;;;;;3.25;1.27;;;4.40;99.90;;;;;;5032985;28;20103;-65
2021/04/16 00:42:23;;;;;;;4.32;1.38;;;4.40;99.90;;;;;;5033624;28;20041;-65
2021/04/16 00:44:49;;;;;;;4.30;1.80;;;4.40;99.90;;;;;;5033507;28;20026;-64
2021/04/16 00:47:21;;;;;;;2.15;1.05;;;4.40;99.90;;;;;;5033429;28;20487;-65
2021/04/16 00:49:52;;;;;;;2.67;1.50;;;4.50;99.90;;;;;;5048530;28;20029;-64
2021/04/16 00:52:29;;;;;;;2.13;1.42;;;4.50;99.90;;;;;;5032225;28;20040;-64
2021/04/16 00:54:56;;;;;;;3.88;1.60;;;4.30;99.90;;;;;;5048644;28;20168;-64
2021/04/16 00:57:23;;;;;;;4.68;1.90;;;4.20;99.90;;;;;;5033351;28;20049;-65
2021/04/16 00:59:56;;;;;;;3.25;1.40;;;4.20;99.90;;;;;;5048560;28;20104;-64
2021/04/16 01:02:23;;;;;;;3.05;1.70;;;4.10;99.90;;;;;;5033292;28;20107;-65
2021/04/16 01:04:49;;;;;;;3.25;1.27;;;4.00;99.90;;;;;;5033122;28;20048;-65
2021/04/16 01:07:18;;;;;;;2.72;1.70;;;4.00;99.90;;;;;;5033051;28;20103;-65
2021/04/16 01:09:46;;;;;;;6.18;1.55;;;4.00;99.90;;;;;;5048216;28;20111;-65
2021/04/16 01:12:13;;;;;;;3.10;1.38;;;4.00;99.90;;;;;;5048297;28;20043;-65
2021/04/16 01:14:44;;;;;;;3.60;1.50;;;4.00;99.90;;;;;;5031853;28;20528;-65
2021/04/16 01:17:13;;;;;;;5.00;1.75;;;4.10;99.90;;;;;;5047975;28;20040;-65
2021/04/16 01:20:13;;;;;;;4.38;1.70;;;4.10;99.90;;;;;;5032631;28;20454;-65
2021/04/16 01:22:56;;;;;;;4.13;1.52;;;4.10;99.90;;;;;;5032762;28;20552;-66
2021/04/16 01:25:24;;;;;;;5.93;1.50;;;4.10;99.90;;;;;;5032982;28;20040;-65
2021/04/16 01:27:50;;;;;;;4.00;1.80;;;4.10;99.90;;;;;;5047951;28;20029;-65
2021/04/16 01:30:23;;;;;;;4.82;1.80;;;4.10;99.90;;;;;;5032867;28;20025;-65
2021/04/16 01:32:50;;;;;;;2.38;1.48;;;4.10;99.90;;;;;;5032634;28;20466;-65
2021/04/16 01:35:32;;;;;;;3.05;1.42;;;4.10;99.90;;;;;;5032821;28;20462;-65
2021/04/16 01:38:02;;;;;;;3.60;1.48;;;4.10;99.90;;;;;;5032531;28;20040;-65
2021/04/16 01:40:27;;;;;;;3.42;1.65;;;4.00;99.90;;;;;;5031565;28;20029;-65
2021/04/16 01:42:53;;;;;;;4.53;1.50;;;4.00;99.90;;;;;;5032474;28;20385;-64
2021/04/16 01:45:26;;;;;;;4.88;2.00;;;3.90;99.90;;;;;;5032563;28;20458;-65
2021/04/16 01:48:10;;;;;;;4.20;1.67;;;4.00;99.90;;;;;;5032144;28;20449;-65
2021/04/16 01:50:36;;;;;;;3.05;1.65;;;4.00;99.90;;;;;;5032636;28;20105;-64
2021/04/16 01:53:03;;;;;;;4.03;1.77;;;4.00;99.90;;;;;;5031088;28;20131;-65
2021/04/16 01:55:29;;;;;;;2.88;1.40;;;4.10;99.90;;;;;;5032463;28;20025;-65
2021/04/16 01:57:55;;;;;;;3.55;1.60;;;4.00;99.90;;;;;;5032303;28;20037;-65
2021/04/16 02:00:26;;;;;;;2.85;1.67;;;4.10;99.90;;;;;;5032369;28;20025;-65
2021/04/16 02:02:52;;;;;;;6.13;1.77;;;4.10;99.90;;;;;;5032330;28;20494;-65
2021/04/16 02:05:18;;;;;;;4.82;2.08;;;4.10;99.90;;;;;;5032383;28;20038;-65
2021/04/16 02:07:44;;;;;;;3.47;1.65;;;4.10;99.90;;;;;;5031159;28;20041;-65
2021/04/16 02:10:12;;;;;;;3.00;1.67;;;4.10;99.90;;;;;;5032201;28;20387;-65
2021/04/16 02:12:38;;;;;;;12.35;3.05;;;4.10;99.90;;;;;;5032284;28;20034;-65
2021/04/16 02:15:05;;;;;;;2.65;1.52;;;4.10;99.90;;;;;;5031974;28;20490;-65
2021/04/16 02:17:31;;;;;;;4.05;1.55;;;4.10;99.90;;;;;;5032228;28;20048;-65
2021/04/16 02:20:00;;;;;;;3.60;2.15;;;4.20;99.90;;;;;;5031672;28;20038;-65
2021/04/16 02:22:28;;;;;;;3.63;1.80;;;4.10;99.90;;;;;;5032154;28;20478;-65
2021/04/16 02:24:55;;;;;;;2.22;1.40;;;4.10;99.90;;;;;;5031919;28;20112;-65
2021/04/16 02:27:26;;;;;;;3.30;1.90;;;4.00;99.90;;;;;;5031912;28;20571;-65
2021/04/16 02:29:54;;;;;;;2.72;1.50;;;4.00;99.90;;;;;;5032098;28;20060;-65
2021/04/16 02:32:20;;;;;;;4.22;2.25;;;4.00;99.90;;;;;;5031926;28;20482;-65
2021/04/16 02:34:46;;;;;;;3.83;1.90;;;4.10;99.90;;;;;;5032078;28;20080;-65
2021/04/16 02:37:16;;;;;;;3.20;1.75;;;4.10;99.90;;;;;;5031997;28;20068;-65
2021/04/16 02:39:42;;;;;;;5.93;2.20;;;4.20;99.90;;;;;;5032097;28;20036;-65
2021/04/16 02:42:09;;;;;;;7.18;2.08;;;4.00;99.90;;;;;;5014105;28;20033;-65
2021/04/16 02:44:36;;;;;;;3.83;1.98;;;4.10;99.90;;;;;;5032082;28;20079;-65
2021/04/16 02:47:04;;;;;;;5.32;1.92;;;4.20;99.90;;;;;;5031905;28;20120;-65
2021/04/16 02:49:31;;;;;;;3.83;2.05;;;4.20;99.90;;;;;;5031823;28;20423;-65
2021/04/16 02:51:56;;;;;;;8.07;2.30;;;4.10;99.90;;;;;;5031812;28;20038;-65
2021/04/16 02:54:23;;;;;;;6.72;2.47;;;4.00;99.90;;;;;;5031584;28;20052;-65
2021/04/16 02:56:49;;;;;;;5.30;2.35;;;4.10;99.90;;;;;;5031922;28;20034;-65
2021/04/16 02:59:20;;;;;;;4.53;2.80;;;4.10;99.90;;;;;;5031690;28;20117;-65
2021/04/16 03:01:46;;;;;;;3.47;2.47;;;4.10;99.90;;;;;;5031546;28;20033;-65
2021/04/16 03:04:11;;;;;;;5.45;2.72;;;4.10;99.90;;;;;;5033875;28;20029;-65
2021/04/16 03:06:37;;;;;;;5.82;2.83;;;3.90;99.90;;;;;;5017430;28;20030;-65
2021/04/16 03:09:05;;;;;;;5.95;2.80;;;3.90;99.90;;;;;;5035332;28;20034;-65
2021/04/16 03:11:31;;;;;;;5.82;3.08;;;3.90;99.90;;;;;;5035448;28;20033;-65
2021/04/16 03:13:57;;;;;;;6.60;2.88;;;4.00;99.90;;;;;;5035230;28;20029;-65
2021/04/16 03:16:26;;;;;;;6.13;2.78;;;4.00;99.90;;;;;;5017414;28;20374;-65
2021/04/16 03:18:54;;;;;;;7.95;3.78;;;3.90;99.90;;;;;;5035275;28;20115;-65
2021/04/16 03:21:20;;;;;;;5.05;3.17;;;3.90;99.90;;;;;;5034718;28;20068;-65
2021/04/16 03:23:46;;;;;;;7.35;4.43;;;3.90;99.90;;;;;;5035123;28;20040;-64
2021/04/16 03:26:12;;;;;;;8.20;3.60;;;3.90;99.90;;;;;;5035038;28;20382;-64
2021/04/16 03:28:37;;;;;;;6.80;3.70;;;3.80;99.90;;;;;;5035108;28;20025;-65
2021/04/16 03:31:04;;;;;;;7.68;4.30;;;3.80;99.90;;;;;;5034487;28;20052;-64
2021/04/16 03:33:29;;;;;;;7.50;3.83;;;3.90;99.90;;;;;;5035036;28;20459;-65
2021/04/16 03:35:55;;;;;;;8.38;3.88;;;3.90;99.90;;;;;;5034742;28;20029;-65
2021/04/16 03:38:21;;;;;;;7.85;3.88;;;3.90;99.90;;;;;;5034965;28;20029;-65
2021/04/16 03:40:47;;;;;;;6.30;3.70;;;3.90;99.90;;;;;;5034730;28;20025;-64
2021/04/16 03:43:14;;;;;;;6.38;3.67;;;3.90;99.90;;;;;;5034488;28;20041;-65
2021/04/16 03:45:40;;;;;;;8.50;4.22;;;3.90;99.90;;;;;;5034298;28;20091;-64
2021/04/16 03:48:07;;;;;;;6.80;3.72;;;3.90;99.90;;;;;;5034355;28;20034;-65
2021/04/16 03:50:35;;;;;;;6.65;3.58;;;3.60;99.90;;;;;;5034040;28;20063;-68
2021/04/16 03:53:03;;;;;;;7.07;3.78;;;3.50;99.90;;;;;;5034689;28;20037;-68
2021/04/16 03:55:32;;;;;;;7.88;4.20;;;3.40;99.90;;;;;;5014514;28;20145;-68
2021/04/16 03:58:01;;;;;;;7.50;4.22;;;3.40;99.90;;;;;;5024470;28;20057;-67
2021/04/16 04:00:33;;;;;;;9.40;4.03;;;3.40;99.90;;;;;;5020595;28;20029;-68
2021/04/16 04:02:59;;;;;;;13.07;4.03;;;3.40;99.90;;;;;;4994175;28;20025;-69
2021/04/16 04:05:29;;;;;;;7.00;3.78;;;3.40;99.90;;;;;;5013138;28;20033;-69
2021/04/16 04:07:55;;;;;;;9.73;3.78;;;3.50;99.90;;;;;;5019322;28;20518;-69
2021/04/16 04:10:22;;;;;;;7.65;3.85;;;3.40;99.90;;;;;;5034292;28;20061;-69
2021/04/16 04:12:49;;;;;;;8.73;3.90;;;3.30;99.90;;;;;;5034361;28;20497;-70
2021/04/16 04:15:18;;;;;;;9.55;4.53;;;3.40;99.90;;;;;;5033053;28;20025;-69
2021/04/16 04:17:44;;;;;;;7.32;4.03;;;3.30;99.90;;;;;;5034033;28;20378;-69
2021/04/16 04:20:20;;;;;;;8.02;4.75;;;3.30;99.90;;;;;;5033880;28;20044;-68
2021/04/16 04:22:46;;;;;;;8.15;4.45;;;3.20;99.90;;;;;;5034156;28;20463;-69
2021/04/16 04:25:14;;;;;;;8.57;4.22;;;3.00;99.90;;;;;;5033726;28;20373;-70
2021/04/16 04:27:40;;;;;;;7.72;4.25;;;3.10;99.90;;;;;;5033993;28;20550;-69
2021/04/16 04:30:07;;;;;;;9.23;4.57;;;3.10;99.90;;;;;;5033820;28;20108;-70
2021/04/16 04:32:32;;;;;;;9.32;4.88;;;3.10;99.90;;;;;;5015367;28;20183;-69
2021/04/16 04:34:58;;;;;;;8.20;4.22;;;3.00;99.90;;;;;;5013982;28;20120;-68
2021/04/16 04:37:24;;;;;;;7.40;4.57;;;3.10;99.90;;;;;;5013241;28;20034;-67
2021/04/16 04:39:50;;;;;;;8.32;4.60;;;3.10;99.90;;;;;;5013515;28;20053;-68
2021/04/16 04:42:16;;;;;;;7.22;4.25;;;3.10;99.90;;;;;;5011719;28;20387;-68
2021/04/16 04:44:42;;;;;;;9.75;4.53;;;3.00;99.90;;;;;;5013408;28;20026;-69
2021/04/16 04:47:09;;;;;;;7.25;3.92;;;2.90;99.90;;;;;;5013008;28;20041;-68
2021/04/16 04:49:36;;;;;;;9.90;5.10;;;3.00;99.90;;;;;;5013561;28;20030;-70
2021/04/16 04:52:24;;;;;;;8.60;4.45;;;3.00;99.90;;;;;;5013396;28;20445;-70
2021/04/16 04:54:56;;;;;;;8.60;4.82;;;3.00;99.90;;;;;;4987744;28;20049;-70
2021/04/16 04:57:25;;;;;;;6.43;4.03;;;3.00;99.90;;;;;;5013462;28;20038;-69
2021/04/16 04:59:51;;;;;;;6.63;4.25;;;2.90;99.90;;;;;;5013699;28;20498;-68
2021/04/16 05:02:20;;;;;;;6.82;4.20;;;3.00;99.90;;;;;;5013140;28;20030;-68
2021/04/16 05:04:46;;;;;;;7.10;4.07;;;2.90;99.90;;;;;;5013379;28;20040;-70
2021/04/16 05:07:13;;;;;;;6.25;3.60;;;2.90;99.90;;;;;;5013119;28;20033;-69
2021/04/16 05:09:38;;;;;;;7.70;4.20;;;2.90;99.90;;;;;;5013425;28;20084;-70
2021/04/16 05:12:05;;;;;;;7.25;4.25;;;2.90;99.90;;;;;;5012782;28;20041;-71
2021/04/16 05:14:31;;;;;;;8.02;4.25;;;2.90;99.90;;;;;;5013357;28;20037;-72
2021/04/16 05:16:57;;;;;;;10.93;5.50;;;3.00;99.90;;;;;;5013315;28;20034;-71
2021/04/16 05:19:23;;;;;;;9.85;4.57;;;2.90;99.90;;;;;;5012626;28;20069;-73
2021/04/16 05:21:50;;;;;;;8.80;5.07;;;3.00;99.90;;;;;;5012517;28;20026;-73
2021/04/16 05:24:16;;;;;;;8.32;4.75;;;3.00;99.90;;;;;;5013099;28;20044;-74
2021/04/16 05:26:42;;;;;;;9.20;4.47;;;3.10;99.90;;;;;;5012866;28;20030;-73
2021/04/16 05:29:08;;;;;;;7.93;4.95;;;3.20;99.90;;;;;;5012601;28;20475;-73
2021/04/16 05:31:36;;;;;;;7.97;4.60;;;3.30;99.90;;;;;;5012920;28;20048;-73
2021/04/16 05:34:03;;;;;;;10.25;4.40;;;3.40;99.90;;;;;;4994936;28;20052;-71
2021/04/16 05:36:30;;;;;;;8.77;5.28;;;3.40;99.90;;;;;;5012806;28;20038;-72
2021/04/16 05:38:55;;;;;;;13.18;4.68;;;3.50;99.90;;;;;;5012593;28;20022;-71
2021/04/16 05:41:22;;;;;;;9.88;4.60;;;3.50;99.90;;;;;;5012456;28;20033;-72
2021/04/16 05:43:48;;;;;;;8.20;4.93;;;3.60;99.90;;;;;;5012739;28;20091;-73
2021/04/16 05:46:14;;;;;;;7.70;4.32;;;3.70;99.90;;;;;;5012552;28;20030;-73
2021/04/16 05:48:40;;;;;;;11.75;5.13;;;3.80;99.90;;;;;;5012657;28;20034;-72
2021/04/16 05:51:07;;;;;;;7.22;4.72;;;3.80;99.90;;;;;;5012621;28;20028;-73
2021/04/16 05:53:32;;;;;;;9.38;4.68;;;3.90;99.90;;;;;;5012517;28;20030;-73
2021/04/16 05:55:58;;;;;;;13.80;5.72;;;4.10;99.90;;;;;;5012632;28;20045;-74
2021/04/16 05:58:24;;;;;;;8.95;4.70;;;4.20;99.90;;;;;;5012440;28;20037;-73
2021/04/16 06:00:50;;;;;;;14.35;5.80;;;4.30;99.90;;;;;;5012292;28;20064;-72
2021/04/16 06:03:18;;;;;;;10.18;4.75;;;4.50;99.90;;;;;;5011274;28;20041;-72
2021/04/16 06:05:44;;;;;;;7.63;3.83;;;4.60;99.90;;;;;;5011860;28;20034;-72
2021/04/16 06:08:10;;;;;;;6.45;4.20;;;4.70;99.90;;;;;;5011906;28;20030;-72
2021/04/16 06:10:36;;;;;;;10.48;4.45;;;4.80;99.90;;;;;;5012416;28;20053;-72
2021/04/16 06:13:03;;;;;;;8.68;3.80;;;4.90;99.90;;;;;;5012449;28;20030;-73
2021/04/16 06:15:29;;;;;;;7.60;4.50;;;4.90;99.90;;;;;;5012233;28;20034;-71
2021/04/16 06:17:56;;;;;;;9.90;3.90;;;5.00;99.90;;;;;;5012158;28;20109;-72
2021/04/16 06:20:24;;;;;;;9.02;4.32;;;5.10;99.90;;;;;;5011717;28;20458;-73
2021/04/16 06:22:53;;;;;;;9.35;5.25;;;5.10;99.90;;;;;;5012150;28;20072;-73
2021/04/16 06:25:29;;;;;;;8.23;4.70;;;5.20;99.90;;;;;;5012264;28;20045;-74
2021/04/16 06:27:55;;;;;;;6.70;3.72;;;5.10;99.90;;;;;;5012251;28;20037;-74
2021/04/16 06:30:22;;;;;;;7.90;4.03;;;5.00;99.90;;;;;;5018547;28;20117;-72
2021/04/16 06:33:06;;;;;;;10.75;5.95;;;5.20;99.90;;;;;;5031889;28;20038;-72
2021/04/16 06:35:34;;;;;;;8.25;4.63;;;5.10;99.90;;;;;;5031813;28;20026;-73
2021/04/16 06:38:00;;;;;;;8.40;4.78;;;5.10;99.90;;;;;;5032154;28;20029;-73
2021/04/16 06:40:29;;;;;;;24.02;12.23;;;5.10;99.90;;;;;;5017680;28;20037;-71
2021/04/16 06:42:55;;;;;;;14.25;4.95;;;5.20;99.90;;;;;;5034159;28;20500;-72
2021/04/16 06:45:31;;;;;;;8.38;4.43;;;5.30;99.90;;;;;;5034330;28;20028;-73
2021/04/16 06:48:08;;;;;;;6.07;3.75;;;5.40;99.90;;;;;;5035681;28;20579;-73
2021/04/16 06:50:41;;;;;;;9.13;4.00;;;5.50;99.90;;;;;;5035730;28;20034;-73
2021/04/16 06:53:39;;;;;;;5.93;3.45;;;5.50;99.90;;;;;;5035541;28;20172;-74
2021/04/16 06:56:37;;;;;;;5.90;3.40;;;5.50;99.90;;;;;;5010282;28;20054;-73
2021/04/16 06:59:18;;;;;;;7.25;3.75;;;5.50;99.90;;;;;;5013502;28;20610;-73
2021/04/16 07:01:48;;;;;;;;;;;5.50;99.90;;;;;;5035859;28;20099;-72
2021/04/16 07:04:52;;;;;;;6.38;3.47;;;5.50;99.90;;;;;;5033889;28;19959;-73
2021/04/16 07:07:33;;;;;;;6.10;3.72;;;5.60;99.90;;;;;;5033667;28;20506;-70
2021/04/16 07:10:05;;;;;;;6.88;3.60;;;5.80;99.90;;;;;;5034044;28;20108;-73
2021/04/16 07:12:32;;;;;;;17.60;6.88;;;5.70;99.90;;;;;;5035052;28;20045;-69
2021/04/16 07:15:08;;;;;;;8.30;3.78;;;5.70;99.90;;;;;;5034082;28;20389;-70
2021/04/16 07:17:46;;;;;;;5.70;3.13;;;5.70;99.90;;;;;;5011231;28;20037;-70
2021/04/16 07:20:18;;;;;;;4.53;2.67;;;5.70;99.90;;;;;;5003767;28;20120;-71
2021/04/16 07:22:57;;;;;;;4.32;2.85;;;5.80;99.90;;;;;;4995687;28;20491;-71
2021/04/16 07:25:43;;;;;;;8.93;3.05;;;5.80;99.90;;;;;;4995568;28;20053;-72
2021/04/16 07:28:34;;;;;;;10.52;4.82;;;6.00;99.90;;;;;;4995668;28;20030;-71
2021/04/16 07:31:31;;;;;;;6.10;3.07;;;6.10;99.90;;;;;;4994577;28;20026;-71
2021/04/16 07:33:59;;;;;;;9.23;3.97;;;6.30;99.90;;;;;;4979105;28;20080;-70
2021/04/16 07:36:40;;;;;;;6.53;3.42;;;6.20;99.90;;;;;;4995332;28;20022;-70
2021/04/16 07:39:29;;;;;;;8.02;3.55;;;6.20;99.90;;;;;;5013349;28;20493;-69
2021/04/16 07:42:08;;;;;;;7.05;3.28;;;6.20;99.90;;;;;;5014821;28;20038;-70
2021/04/16 07:44:39;;;;;;;6.13;3.10;;;6.40;99.90;;;;;;5014763;28;20034;-71
2021/04/16 07:47:11;;;;;;;6.70;2.95;;;6.50;99.90;;;;;;5014933;28;20390;-70
2021/04/16 07:49:38;;;;;;;6.93;3.08;;;6.50;99.90;;;;;;5014615;28;20092;-69
2021/04/16 07:52:40;;;;;;;5.05;2.80;;;6.40;99.90;;;;;;5014715;28;20034;-70
2021/04/16 07:55:30;;;;;;;6.30;3.17;;;6.30;99.90;;;;;;5014652;28;20065;-70
2021/04/16 07:58:23;;;;;;;7.20;3.03;;;6.40;99.90;;;;;;5014653;28;20069;-71
2021/04/16 08:00:51;;;;;;;7.20;3.13;;;6.60;99.90;;;;;;4995548;28;20114;-70
2021/04/16 08:03:26;;;;;;;7.40;3.50;;;6.80;99.90;;;;;;4994718;28;20031;-70
2021/04/16 08:05:58;;;;;;;6.10;3.88;;;6.90;99.90;;;;;;4993608;28;20108;-70
2021/04/16 08:08:26;;;;;;;5.30;3.20;;;6.80;99.90;;;;;;4993554;28;20034;-70
2021/04/16 08:11:00;;;;;;;6.88;3.13;;;6.70;99.90;;;;;;4994923;28;20042;-72
2021/04/16 08:13:34;;;;;;;5.85;3.35;;;6.60;99.90;;;;;;4994651;28;20034;-70
2021/04/16 08:16:23;;;;;;;7.20;3.22;;;6.50;99.90;;;;;;4977277;28;20117;-70
2021/04/16 08:19:14;;;;;;;6.80;3.67;;;6.60;99.90;;;;;;4994568;28;20042;-71
2021/04/16 08:21:49;;;;;;;6.03;3.33;;;6.50;99.90;;;;;;4993453;28;20043;-71
2021/04/16 08:24:54;;;;;;;7.82;3.63;;;6.70;99.90;;;;;;4993341;28;20031;-71
2021/04/16 08:27:50;;;;;;;8.93;3.50;;;6.90;99.90;;;;;;4991440;28;20062;-70
2021/04/16 08:30:51;;;;;;;5.88;2.85;;;6.90;99.90;;;;;;4988226;28;20046;-70
2021/04/16 08:33:40;;;;;;;4.93;3.47;;;7.10;99.90;;;;;;4991068;28;20563;-70
2021/04/16 08:36:26;;;;;;;5.80;3.33;;;7.30;99.90;;;;;;4994297;28;20042;-70
2021/04/16 08:38:58;;;;;;;5.72;3.25;;;7.50;99.90;;;;;;4993075;28;20041;-71
2021/04/16 08:41:26;;;;;;;5.25;2.83;;;7.70;99.90;;;;;;4992903;28;20034;-70
2021/04/16 08:44:01;;;;;;;5.00;3.03;;;8.00;99.80;;;;;;4994031;28;20026;-69
2021/04/16 08:46:41;;;;;;;7.28;3.10;;;7.60;99.80;;;;;;4992724;28;20341;-71
2021/04/16 08:49:19;;;;;;;7.93;2.75;;;7.60;99.90;;;;;;4994044;28;20388;-71
2021/04/16 08:51:51;;;;;;;8.02;3.10;;;7.80;99.90;;;;;;4995346;28;20042;-71
2021/04/16 08:54:30;;;;;;;12.00;3.35;;;7.70;99.90;;;;;;4975873;28;20031;-70
2021/04/16 08:57:09;;;;;;;4.60;2.67;;;7.90;99.90;;;;;;4992713;28;20030;-70
2021/04/16 09:00:24;;;;;;;4.28;2.72;;;8.20;99.30;;;;;;4992227;28;20621;-69
2021/04/16 09:02:55;;;;;;;4.93;2.85;;;8.00;98.70;;;;;;4961800;28;20045;-70
2021/04/16 09:05:35;;;;;;;4.75;2.75;;;7.90;99.10;;;;;;4992452;28;20027;-69
2021/04/16 09:08:06;;;;;;;4.78;2.50;;;8.20;98.60;;;;;;4993746;28;20506;-70
2021/04/16 09:10:46;;;;;;;4.78;2.28;;;8.20;98.40;;;;;;4993479;28;20168;-71
2021/04/16 09:13:40;;;;;;;5.43;2.65;;;8.30;98.40;;;;;;4993652;28;20061;-70
2021/04/16 09:16:15;;;;;;;5.50;2.70;;;8.20;98.30;;;;;;4993222;28;20503;-69
2021/04/16 09:18:49;;;;;;;4.43;2.55;;;8.40;98.00;;;;;;4993427;28;20051;-70
2021/04/16 09:21:23;;;;;;;13.30;4.43;;;8.30;97.90;;;;;;5011382;28;20034;-70
2021/04/16 09:23:48;;;;;;;6.38;2.83;;;8.30;97.80;;;;;;5012703;28;20394;-71
2021/04/16 09:26:48;;;;;;;8.50;2.70;;;7.90;98.70;;;;;;5012932;28;20030;-71
2021/04/16 09:29:37;;;;;;;4.72;2.72;;;8.10;98.20;;;;;;5012968;28;20048;-70
2021/04/16 09:32:25;;;;;;;4.35;2.38;;;8.60;97.10;;;;;;5012955;28;20034;-70
2021/04/16 09:34:52;;;;;;;4.35;2.25;;;9.00;96.80;;;;;;5011519;28;20030;-70
2021/04/16 09:37:28;;;;;;;5.95;2.45;;;9.10;95.60;;;;;;5012725;28;20031;-71
2021/04/16 09:40:30;;;;;;;7.43;2.00;;;9.30;95.80;;;;;;5012701;28;20073;-70
2021/04/16 09:43:28;;;;;;;3.30;1.63;;;9.60;94.80;;;;;;4981202;28;20096;-71
2021/04/16 09:45:54;;;;;;;3.33;2.15;;;9.90;93.50;;;;;;5011546;28;20038;-70
2021/04/16 09:48:20;;;;;;;5.63;1.73;;;9.90;92.50;;;;;;4994929;28;20080;-71
2021/04/16 09:51:09;;;;;;;3.55;1.98;;;9.80;92.60;;;;;;5012685;28;20379;-71
2021/04/16 09:53:36;;;;;;;4.70;2.10;;;9.40;93.60;;;;;;5004276;28;20104;-69
2021/04/16 09:56:02;;;;;;;6.10;1.77;;;9.80;92.80;;;;;;5011161;28;20069;-71
2021/04/16 09:58:42;;;;;;;4.10;1.92;;;9.70;92.50;;;;;;5012283;28;20053;-70
2021/04/16 10:01:17;;;;;;;3.65;1.92;;;9.30;91.90;;;;;;5012624;28;20029;-71
2021/04/16 10:04:07;;;;;;;3.70;2.00;;;9.60;91.70;;;;;;5009235;28;20136;-69
2021/04/16 10:06:43;;;;;;;3.17;1.88;;;9.50;92.40;;;;;;4973135;28;20035;-72
2021/04/16 10:09:17;;;;;;;3.10;1.70;;;9.40;92.00;;;;;;4973490;28;20093;-66
2021/04/16 10:12:14;;;;;;;3.00;1.40;;;9.50;91.60;;;;;;4973255;28;20113;-68
2021/04/16 10:14:40;;;;;;;6.18;2.45;;;9.70;91.80;;;;;;4974871;28;20046;-67
2021/04/16 10:17:25;;;;;;;2.92;1.60;;;9.80;90.90;;;;;;4977513;28;20030;-66
2021/04/16 10:20:16;;;;;;;3.42;1.17;;;9.40;90.20;;;;;;4984432;28;20530;-69
2021/04/16 10:22:42;;;;;;;4.70;2.20;;;9.90;88.90;;;;;;4996452;28;20096;-67
2021/04/16 12:38:58;;;;;;;4.03;1.40;;;9.00;93.70;;;;;;5032884;28;20088;-72
2021/04/16 12:41:31;;;;;;;4.53;1.35;;;8.30;95.70;;;;;;5033505;28;20041;-71
2021/04/16 12:43:58;;;;;;;3.20;1.38;;;8.60;95.60;;;;;;5031512;28;20038;-71
2021/04/16 12:46:37;;;;;;;7.00;1.88;;;8.60;95.50;;;;;;5032822;28;20033;-70
2021/04/16 12:49:05;;;;;;;21.70;6.80;;;8.80;95.20;;;;;;5033203;28;20030;-72
2021/04/16 12:51:31;;;;;;;4.18;1.98;;;9.10;95.00;;;;;;5015472;28;20045;-70
2021/04/16 12:53:56;;;;;;;4.00;1.63;;;9.10;94.50;;;;;;5033252;28;20044;-71
2021/04/16 12:56:38;;;;;;;2.85;1.25;;;9.40;94.20;;;;;;5032416;28;20467;-70
2021/04/16 12:59:18;;;;;;;6.40;1.30;;;9.70;93.60;;;;;;5033092;28;20117;-71
2021/04/16 13:01:50;;;;;;;2.70;1.45;;;9.70;93.50;;;;;;5033033;28;20041;-70
2021/04/16 13:04:19;;;;;;;2.63;1.42;;;9.70;93.30;;;;;;5031865;28;20033;-70
2021/04/16 13:06:47;;;;;;;6.60;1.83;;;9.90;93.40;;;;;;5031891;28;20032;-72
2021/04/16 13:09:18;;;;;;;29.95;15.02;;;10.10;93.10;;;;;;5029986;28;20132;-70
2021/04/16 13:11:43;;;;;;;3.40;2.00;;;10.20;93.60;;;;;;5032556;28;20071;-72
2021/04/16 13:14:10;;;;;;;2.97;1.42;;;9.00;93.70;;;;;;5032650;28;20053;-70
2021/04/16 13:16:39;;;;;;;1.95;1.05;;;9.30;94.50;;;;;;5031626;28;20036;-73
2021/04/16 13:19:30;;;;;;;4.57;1.38;;;9.90;93.40;;;;;;5031340;28;20053;-71
2021/04/16 13:22:08;;;;;;;;;;;10.30;92.00;;;;;;5017862;28;20041;-70
2021/04/16 13:24:36;;;;;;;1.80;1.20;;;10.40;91.90;;;;;;5031070;28;20373;-69
2021/04/16 13:27:07;;;;;;;3.88;1.42;;;10.60;89.80;;;;;;5032800;28;20549;-70
2021/04/16 13:29:34;;;;;;;1.83;1.05;;;10.80;88.80;;;;;;5032559;28;20621;-70
2021/04/16 13:32:00;;;;;;;1.85;1.10;;;10.00;90.20;;;;;;5031030;28;20132;-71
2021/04/16 13:34:28;;;;;;;3.85;1.15;;;10.30;91.00;;;;;;5032465;28;20040;-71
2021/04/16 13:36:54;;;;;;;3.72;1.08;;;10.30;95.50;;;;;;5031168;28;20095;-70
2021/04/16 13:39:20;;;;;;;3.95;1.20;;;9.90;91.00;;;;;;5014826;28;20117;-70
2021/04/16 13:41:46;;;;;;;6.25;1.40;;;10.00;91.00;;;;;;5032314;28;20026;-72
2021/04/16 13:44:13;;;;;;;3.45;1.45;;;10.10;90.80;;;;;;5032387;28;20033;-71
2021/04/16 13:46:40;;;;;;;4.57;1.30;;;10.10;91.20;;;;;;5032156;28;20033;-70
2021/04/16 13:49:15;;;;;;;3.47;1.45;;;9.50;91.60;;;;;;5032295;28;20059;-73
2021/04/16 13:51:40;;;;;;;4.43;1.60;;;9.80;91.60;;;;;;5032062;28;20479;-72
2021/04/16 13:54:08;;;;;;;3.03;1.10;;;9.90;91.30;;;;;;5032173;28;20116;-72
2021/04/16 13:56:35;;;;;;;1.80;1.38;;;9.90;91.50;;;;;;5032358;28;20033;-72
2021/04/16 13:59:01;;;;;;;6.90;1.70;;;10.20;91.40;;;;;;5032386;28;20033;-71
2021/04/16 14:01:28;;;;;;;3.55;1.30;;;10.50;90.50;;;;;;5014275;28;20465;-71
2021/04/16 14:04:04;;;;;;;5.57;2.47;;;10.90;89.80;;;;;;5017450;28;20045;-72
2021/04/16 14:06:38;;;;;;;2.75;1.13;;;10.70;90.00;;;;;;5031785;28;20650;-71
2021/04/16 14:09:13;;;;;;;3.37;1.03;;;10.30;90.10;;;;;;5031001;28;20052;-72
2021/04/16 14:11:39;;;;;;;4.43;1.40;;;10.20;90.60;;;;;;5030864;28;20041;-71
2021/04/16 14:14:13;;;;;;;12.52;5.60;;;10.30;90.50;;;;;;5032133;28;20033;-72
2021/04/16 14:16:43;;;;;;;3.10;1.38;;;10.50;93.40;;;;;;5031227;28;20064;-71
2021/04/16 14:19:26;;;;;;;3.50;1.27;;;10.30;91.00;;;;;;5031807;28;20087;-71
2021/04/16 14:21:58;;;;;;;3.95;1.48;;;10.40;90.70;;;;;;5014184;28;20113;-72
2021/04/16 14:24:25;;;;;;;2.47;1.30;;;10.10;91.50;;;;;;5031735;28;20367;-70
2021/04/16 14:26:54;;;;;;;2.65;1.40;;;10.10;91.60;;;;;;5031841;28;20068;-73
2021/04/16 14:29:20;;;;;;;4.97;1.65;;;9.60;91.80;;;;;;5031922;28;20113;-71
2021/04/16 14:31:46;;;;;;;4.95;1.40;;;9.40;93.10;;;;;;5031808;28;20025;-71
2021/04/16 14:34:20;;;;;;;4.80;1.50;;;9.30;93.10;;;;;;5031914;28;20033;-71
2021/04/16 14:36:46;;;;;;;4.15;1.75;;;9.20;93.30;;;;;;5031395;28;20077;-73
2021/04/16 14:39:13;;;;;;;4.45;1.40;;;9.20;93.40;;;;;;5030717;28;20037;-62
2021/04/16 14:41:40;;;;;;;2.50;1.20;;;9.60;93.10;;;;;;5031525;28;20034;-71
2021/04/16 14:44:14;;;;;;;4.50;1.63;;;9.70;92.60;;;;;;5031709;28;20062;-71
2021/04/16 14:46:49;;;;;;;4.03;1.50;;;9.70;92.70;;;;;;5031833;28;20359;-72
2021/04/16 14:49:20;;;;;;;2.00;1.10;;;9.60;92.70;;;;;;5029262;28;20054;-72
2021/04/16 14:51:48;;;;;;;4.95;1.40;;;9.70;92.70;;;;;;5034600;28;20101;-72
2021/04/16 14:54:30;;;;;;;3.22;1.13;;;9.80;92.20;;;;;;5033500;28;20029;-72
2021/04/16 14:57:00;;;;;;;2.97;1.55;;;9.70;92.20;;;;;;5051641;28;20504;-72
2021/04/16 14:59:41;;;;;;;3.30;1.65;;;9.90;92.20;;;;;;5052587;28;20037;-71
2021/04/16 15:02:07;;;;;;;3.72;1.88;;;9.60;92.40;;;;;;5054353;28;20465;-72
2021/04/16 15:04:33;;;;;;;8.40;3.75;;;9.40;93.00;;;;;;5055435;28;20203;-72
2021/04/16 15:07:04;;;;;;;3.10;1.60;;;9.50;93.20;;;;;;5054699;28;20041;-71
2021/04/16 15:09:55;;;;;;;2.90;1.33;;;9.70;93.10;;;;;;5055337;28;20029;-70
2021/04/16 15:12:26;;;;;;;3.27;1.23;;;10.00;92.60;;;;;;5055370;28;20033;-71
2021/04/16 15:14:58;;;;;;;4.63;1.38;;;9.70;92.70;;;;;;5053878;28;20029;-71
2021/04/16 15:17:24;;;;;;;4.95;1.40;;;9.70;93.00;;;;;;5054047;28;20492;-72
2021/04/16 15:19:53;;;;;;;3.53;1.33;;;9.50;93.40;;;;;;5054581;28;20045;-71
2021/04/16 15:22:24;;;;;;;2.90;1.35;;;9.40;93.70;;;;;;5053945;28;20432;-70
2021/04/16 15:24:52;;;;;;;2.45;1.10;;;9.50;93.60;;;;;;5054791;28;20025;-73
2021/04/16 15:27:34;;;;;;;2.83;1.20;;;9.30;94.00;;;;;;5055054;28;20386;-72
2021/04/16 15:30:06;;;;;;;2.28;1.30;;;8.90;95.00;;;;;;5053671;28;20025;-72
2021/04/16 15:32:39;;;;;;;5.05;1.70;;;8.80;95.70;;;;;;5054958;28;20025;-73